YCB weather

Cambridge Bay Airport
Cambridge Bay, Nunavut, Canada

Public forecast

Using degrees Celsius for public forecast. Weather courtesy of forecast.io.

Current aviation weather report (METAR) for Cambridge Bay Airport

Retrieved 2020/04/05 11:00 UTC (7 minutes ago):

CYCB 051100Z 10006KT 090V160 15SM FEW220 M25/M28 A3047 RMK CI1 SLP324

Aviation forecast (TAF) for Cambridge Bay Airport

Retrieved 2020/04/05 07:42 UTC (3 hours ago):

TAF TAF CYCB 050638Z 0507/0519 13015KT P6SM FEW220 RMK NXT FCST BY 051300Z